sensor_id;sensor_type;location;lat;lon;timestamp;pressure;altitude;pressure_sealevel;temperature;humidity
11329;BME280;5719;42.714;23.732;2023-03-15T00:00:44;93467.56;;;5.37;53.95
11329;BME280;5719;42.714;23.732;2023-03-15T00:03:10;93472.25;;;5.43;54.32
11329;BME280;5719;42.714;23.732;2023-03-15T00:05:41;93471.84;;;5.49;54.31
11329;BME280;5719;42.714;23.732;2023-03-15T00:08:08;93468.16;;;5.53;54.01
11329;BME280;5719;42.714;23.732;2023-03-15T00:10:39;93462.59;;;5.59;54.25
11329;BME280;5719;42.714;23.732;2023-03-15T00:13:07;93467.47;;;5.38;54.77
11329;BME280;5719;42.714;23.732;2023-03-15T00:15:35;93464.28;;;5.22;55.06
11329;BME280;5719;42.714;23.732;2023-03-15T00:18:03;93471.66;;;5.27;55.03
11329;BME280;5719;42.714;23.732;2023-03-15T00:20:30;93467.75;;;5.21;55.08
11329;BME280;5719;42.714;23.732;2023-03-15T00:22:57;93463.06;;;5.28;55.01
11329;BME280;5719;42.714;23.732;2023-03-15T00:25:23;93452.38;;;5.34;55.02
11329;BME280;5719;42.714;23.732;2023-03-15T00:27:50;93458.72;;;5.41;54.95
11329;BME280;5719;42.714;23.732;2023-03-15T00:30:19;93455.25;;;5.42;54.59
11329;BME280;5719;42.714;23.732;2023-03-15T00:32:45;93458.53;;;5.44;54.04
11329;BME280;5719;42.714;23.732;2023-03-15T00:35:13;93453.41;;;5.44;54.02
11329;BME280;5719;42.714;23.732;2023-03-15T00:37:42;93444.78;;;5.45;53.99
11329;BME280;5719;42.714;23.732;2023-03-15T00:40:11;93437.19;;;5.43;54.14
11329;BME280;5719;42.714;23.732;2023-03-15T00:42:38;93429.41;;;5.45;53.81
11329;BME280;5719;42.714;23.732;2023-03-15T00:45:06;93428.59;;;5.44;53.87
11329;BME280;5719;42.714;23.732;2023-03-15T00:47:34;93425.31;;;5.42;53.70
11329;BME280;5719;42.714;23.732;2023-03-15T00:50:01;93417.28;;;5.47;53.53
11329;BME280;5719;42.714;23.732;2023-03-15T00:52:33;93419.16;;;5.45;54.08
11329;BME280;5719;42.714;23.732;2023-03-15T00:55:00;93426.25;;;5.41;54.17
11329;BME280;5719;42.714;23.732;2023-03-15T00:57:27;93421.22;;;5.40;54.70
11329;BME280;5719;42.714;23.732;2023-03-15T00:59:54;93418.88;;;5.37;54.59
11329;BME280;5719;42.714;23.732;2023-03-15T01:02:21;93415.69;;;5.33;54.47
11329;BME280;5719;42.714;23.732;2023-03-15T01:04:49;93409.97;;;5.30;54.36
11329;BME280;5719;42.714;23.732;2023-03-15T01:07:16;93414.38;;;5.28;54.14
11329;BME280;5719;42.714;23.732;2023-03-15T01:09:43;93406.69;;;5.28;54.12
11329;BME280;5719;42.714;23.732;2023-03-15T01:12:10;93410.06;;;5.28;54.07
11329;BME280;5719;42.714;23.732;2023-03-15T01:14:37;93403.31;;;5.27;53.33
11329;BME280;5719;42.714;23.732;2023-03-15T01:17:04;93401.75;;;5.25;53.06
11329;BME280;5719;42.714;23.732;2023-03-15T01:19:31;93397.66;;;5.22;53.65
11329;BME280;5719;42.714;23.732;2023-03-15T01:22:00;93392.06;;;5.17;52.93
11329;BME280;5719;42.714;23.732;2023-03-15T01:24:27;93395.84;;;5.12;53.16
11329;BME280;5719;42.714;23.732;2023-03-15T01:26:53;93390.53;;;5.02;53.35
11329;BME280;5719;42.714;23.732;2023-03-15T01:29:20;93389.31;;;4.82;54.17
11329;BME280;5719;42.714;23.732;2023-03-15T01:31:47;93385.31;;;4.78;54.72
11329;BME280;5719;42.714;23.732;2023-03-15T01:34:14;93390.34;;;4.67;55.90
11329;BME280;5719;42.714;23.732;2023-03-15T01:36:41;93390.72;;;4.36;57.15
11329;BME280;5719;42.714;23.732;2023-03-15T01:39:09;93377.44;;;4.43;58.00
11329;BME280;5719;42.714;23.732;2023-03-15T01:41:36;93387.66;;;4.43;57.65
11329;BME280;5719;42.714;23.732;2023-03-15T01:44:03;93391.75;;;4.46;58.24
11329;BME280;5719;42.714;23.732;2023-03-15T01:46:31;93378.13;;;4.45;59.12
11329;BME280;5719;42.714;23.732;2023-03-15T01:49:04;93373.94;;;4.44;58.75
11329;BME280;5719;42.714;23.732;2023-03-15T01:51:32;93369.56;;;4.47;59.07
11329;BME280;5719;42.714;23.732;2023-03-15T01:54:04;93374.75;;;4.45;58.88
11329;BME280;5719;42.714;23.732;2023-03-15T01:56:35;93378.06;;;4.47;58.90
11329;BME280;5719;42.714;23.732;2023-03-15T01:59:04;93372.94;;;4.47;58.99
11329;BME280;5719;42.714;23.732;2023-03-15T02:01:35;93370.38;;;4.47;58.97
11329;BME280;5719;42.714;23.732;2023-03-15T02:04:06;93372.00;;;4.48;59.33
11329;BME280;5719;42.714;23.732;2023-03-15T02:06:36;93376.19;;;4.49;59.07
11329;BME280;5719;42.714;23.732;2023-03-15T02:09:05;93375.28;;;4.50;58.01
11329;BME280;5719;42.714;23.732;2023-03-15T02:11:35;93368.44;;;4.51;58.71
11329;BME280;5719;42.714;23.732;2023-03-15T02:14:04;93372.72;;;4.50;59.03
11329;BME280;5719;42.714;23.732;2023-03-15T02:16:31;93363.41;;;4.49;58.97
11329;BME280;5719;42.714;23.732;2023-03-15T02:18:59;93361.66;;;4.50;59.52
11329;BME280;5719;42.714;23.732;2023-03-15T02:21:41;93361.88;;;4.47;58.62
11329;BME280;5719;42.714;23.732;2023-03-15T02:24:21;93362.91;;;4.44;58.93
11329;BME280;5719;42.714;23.732;2023-03-15T02:26:54;93335.28;;;4.36;59.32
11329;BME280;5719;42.714;23.732;2023-03-15T02:29:24;93343.44;;;4.41;60.60
11329;BME280;5719;42.714;23.732;2023-03-15T02:31:52;93331.78;;;4.25;60.85
11329;BME280;5719;42.714;23.732;2023-03-15T02:34:19;93353.44;;;4.19;61.62
11329;BME280;5719;42.714;23.732;2023-03-15T02:36:51;93342.59;;;4.16;62.26
11329;BME280;5719;42.714;23.732;2023-03-15T02:39:20;93331.25;;;4.20;62.74
11329;BME280;5719;42.714;23.732;2023-03-15T02:41:49;93321.75;;;4.22;62.55
11329;BME280;5719;42.714;23.732;2023-03-15T02:44:21;93348.56;;;3.77;65.07
11329;BME280;5719;42.714;23.732;2023-03-15T02:46:51;93344.47;;;3.47;66.35
11329;BME280;5719;42.714;23.732;2023-03-15T02:49:21;93335.44;;;3.69;66.81
11329;BME280;5719;42.714;23.732;2023-03-15T02:51:49;93327.56;;;3.72;66.40
11329;BME280;5719;42.714;23.732;2023-03-15T02:54:17;93320.53;;;3.75;65.19
11329;BME280;5719;42.714;23.732;2023-03-15T02:56:44;93322.22;;;3.89;64.33
11329;BME280;5719;42.714;23.732;2023-03-15T02:59:11;93319.25;;;3.95;64.54
11329;BME280;5719;42.714;23.732;2023-03-15T03:01:38;93318.97;;;4.00;64.90
11329;BME280;5719;42.714;23.732;2023-03-15T03:04:06;93321.41;;;4.01;64.09
11329;BME280;5719;42.714;23.732;2023-03-15T03:06:33;93316.81;;;4.06;63.66
11329;BME280;5719;42.714;23.732;2023-03-15T03:09:00;93324.41;;;4.08;64.20
11329;BME280;5719;42.714;23.732;2023-03-15T03:11:29;93323.47;;;4.09;64.19
11329;BME280;5719;42.714;23.732;2023-03-15T03:13:56;93330.22;;;4.10;63.42
11329;BME280;5719;42.714;23.732;2023-03-15T03:16:22;93318.88;;;4.14;63.53
11329;BME280;5719;42.714;23.732;2023-03-15T03:18:49;93303.44;;;4.15;62.96
11329;BME280;5719;42.714;23.732;2023-03-15T03:21:18;93305.25;;;4.01;63.52
11329;BME280;5719;42.714;23.732;2023-03-15T03:23:45;93306.06;;;4.01;62.72
11329;BME280;5719;42.714;23.732;2023-03-15T03:26:13;93296.34;;;4.06;62.48
11329;BME280;5719;42.714;23.732;2023-03-15T03:28:42;93288.78;;;3.92;62.78
11329;BME280;5719;42.714;23.732;2023-03-15T03:31:15;93282.63;;;3.94;62.41
11329;BME280;5719;42.714;23.732;2023-03-15T03:33:42;93290.84;;;4.00;62.24
11329;BME280;5719;42.714;23.732;2023-03-15T03:36:09;93288.31;;;3.60;62.47
11329;BME280;5719;42.714;23.732;2023-03-15T03:38:39;93293.78;;;3.41;63.42
11329;BME280;5719;42.714;23.732;2023-03-15T03:41:07;93265.53;;;3.30;64.57
11329;BME280;5719;42.714;23.732;2023-03-15T03:43:34;93277.69;;;3.27;66.08
11329;BME280;5719;42.714;23.732;2023-03-15T03:46:01;93276.94;;;3.25;68.42
11329;BME280;5719;42.714;23.732;2023-03-15T03:48:28;93258.00;;;3.41;67.44
11329;BME280;5719;42.714;23.732;2023-03-15T03:50:55;93266.00;;;3.50;68.07
11329;BME280;5719;42.714;23.732;2023-03-15T03:53:22;93261.69;;;3.50;66.63
11329;BME280;5719;42.714;23.732;2023-03-15T03:55:50;93260.06;;;3.49;66.66
11329;BME280;5719;42.714;23.732;2023-03-15T03:58:19;93257.03;;;3.57;66.45
11329;BME280;5719;42.714;23.732;2023-03-15T04:00:46;93256.53;;;3.64;66.84
11329;BME280;5719;42.714;23.732;2023-03-15T04:03:13;93261.44;;;3.67;66.78
11329;BME280;5719;42.714;23.732;2023-03-15T04:05:40;93263.25;;;3.65;66.32
11329;BME280;5719;42.714;23.732;2023-03-15T04:08:07;93246.13;;;3.67;66.32
11329;BME280;5719;42.714;23.732;2023-03-15T04:10:34;93251.03;;;3.70;66.41
11329;BME280;5719;42.714;23.732;2023-03-15T04:13:02;93247.72;;;3.68;65.81
11329;BME280;5719;42.714;23.732;2023-03-15T04:15:29;93243.75;;;3.64;65.29
11329;BME280;5719;42.714;23.732;2023-03-15T04:17:56;93255.34;;;3.43;66.51
11329;BME280;5719;42.714;23.732;2023-03-15T04:20:25;93254.75;;;3.52;66.40
11329;BME280;5719;42.714;23.732;2023-03-15T04:22:53;93256.91;;;3.58;66.52
11329;BME280;5719;42.714;23.732;2023-03-15T04:25:20;93261.72;;;3.63;66.70
11329;BME280;5719;42.714;23.732;2023-03-15T04:27:50;93256.41;;;3.66;65.82
11329;BME280;5719;42.714;23.732;2023-03-15T04:30:25;93255.31;;;3.70;65.80
11329;BME280;5719;42.714;23.732;2023-03-15T04:32:53;93251.03;;;3.70;65.43
11329;BME280;5719;42.714;23.732;2023-03-15T04:35:24;93252.84;;;3.68;64.78
11329;BME280;5719;42.714;23.732;2023-03-15T04:37:51;93250.41;;;3.67;64.65
11329;BME280;5719;42.714;23.732;2023-03-15T04:40:18;93256.28;;;3.15;67.58
11329;BME280;5719;42.714;23.732;2023-03-15T04:42:48;93263.75;;;3.18;67.99
11329;BME280;5719;42.714;23.732;2023-03-15T04:45:15;93255.53;;;3.27;67.84
11329;BME280;5719;42.714;23.732;2023-03-15T04:47:43;93262.06;;;3.31;67.54
11329;BME280;5719;42.714;23.732;2023-03-15T04:50:10;93255.13;;;3.33;66.88
11329;BME280;5719;42.714;23.732;2023-03-15T04:52:38;93255.03;;;3.35;67.51
11329;BME280;5719;42.714;23.732;2023-03-15T04:55:05;93248.78;;;3.39;67.19
11329;BME280;5719;42.714;23.732;2023-03-15T04:57:32;93247.16;;;3.38;67.55
11329;BME280;5719;42.714;23.732;2023-03-15T04:59:59;93248.63;;;3.42;67.54
11329;BME280;5719;42.714;23.732;2023-03-15T05:02:26;93246.78;;;3.44;67.57
11329;BME280;5719;42.714;23.732;2023-03-15T05:04:54;93250.34;;;3.41;67.18
11329;BME280;5719;42.714;23.732;2023-03-15T05:07:21;93238.19;;;3.45;67.48
11329;BME280;5719;42.714;23.732;2023-03-15T05:09:48;93243.63;;;3.53;67.21
11329;BME280;5719;42.714;23.732;2023-03-15T05:12:15;93243.25;;;3.32;67.26
11329;BME280;5719;42.714;23.732;2023-03-15T05:14:42;93254.28;;;3.33;67.54
11329;BME280;5719;42.714;23.732;2023-03-15T05:17:09;93253.72;;;3.42;67.76
11329;BME280;5719;42.714;23.732;2023-03-15T05:19:36;93258.63;;;3.45;67.72
11329;BME280;5719;42.714;23.732;2023-03-15T05:22:06;93251.59;;;3.61;67.93
11329;BME280;5719;42.714;23.732;2023-03-15T05:24:33;93248.06;;;3.76;67.23
11329;BME280;5719;42.714;23.732;2023-03-15T05:27:00;93248.78;;;3.91;66.84
11329;BME280;5719;42.714;23.732;2023-03-15T05:29:28;93248.09;;;4.14;66.21
11329;BME280;5719;42.714;23.732;2023-03-15T05:31:55;93249.41;;;4.20;68.06
11329;BME280;5719;42.714;23.732;2023-03-15T05:34:22;93244.94;;;3.46;70.11
11329;BME280;5719;42.714;23.732;2023-03-15T05:36:49;93236.63;;;4.07;70.02
11329;BME280;5719;42.714;23.732;2023-03-15T05:39:18;93231.56;;;4.56;67.99
11329;BME280;5719;42.714;23.732;2023-03-15T05:41:47;93240.91;;;4.81;66.26
11329;BME280;5719;42.714;23.732;2023-03-15T05:44:14;93248.47;;;5.19;65.55
11329;BME280;5719;42.714;23.732;2023-03-15T05:46:41;93240.06;;;5.64;64.83
11329;BME280;5719;42.714;23.732;2023-03-15T05:49:08;93234.38;;;5.72;61.09
11329;BME280;5719;42.714;23.732;2023-03-15T05:51:35;93233.44;;;6.08;58.19
11329;BME280;5719;42.714;23.732;2023-03-15T05:54:02;93232.69;;;6.52;55.91
11329;BME280;5719;42.714;23.732;2023-03-15T05:56:30;93238.72;;;6.84;54.40
11329;BME280;5719;42.714;23.732;2023-03-15T05:58:57;93232.25;;;7.01;53.46
11329;BME280;5719;42.714;23.732;2023-03-15T06:01:27;93232.31;;;7.21;53.74
11329;BME280;5719;42.714;23.732;2023-03-15T06:03:54;93222.06;;;7.53;52.59
11329;BME280;5719;42.714;23.732;2023-03-15T06:06:20;93218.44;;;7.76;51.91
11329;BME280;5719;42.714;23.732;2023-03-15T06:08:47;93213.13;;;7.89;52.68
11329;BME280;5719;42.714;23.732;2023-03-15T06:11:14;93210.00;;;8.06;52.96
11329;BME280;5719;42.714;23.732;2023-03-15T06:13:42;93205.34;;;8.21;51.49
11329;BME280;5719;42.714;23.732;2023-03-15T06:16:09;93195.25;;;8.29;52.36
11329;BME280;5719;42.714;23.732;2023-03-15T06:18:36;93196.00;;;8.41;51.68
11329;BME280;5719;42.714;23.732;2023-03-15T06:21:03;93198.34;;;8.53;50.89
11329;BME280;5719;42.714;23.732;2023-03-15T06:23:30;93205.47;;;8.40;49.97
11329;BME280;5719;42.714;23.732;2023-03-15T06:25:57;93212.78;;;8.24;53.25
11329;BME280;5719;42.714;23.732;2023-03-15T06:28:24;93228.22;;;7.94;55.08
11329;BME280;5719;42.714;23.732;2023-03-15T06:30:52;93232.66;;;7.92;55.97
11329;BME280;5719;42.714;23.732;2023-03-15T06:33:19;93222.13;;;8.36;55.59
11329;BME280;5719;42.714;23.732;2023-03-15T06:35:46;93221.94;;;8.89;54.47
11329;BME280;5719;42.714;23.732;2023-03-15T06:38:13;93224.88;;;9.24;52.22
11329;BME280;5719;42.714;23.732;2023-03-15T06:40:40;93229.03;;;9.06;51.83
11329;BME280;5719;42.714;23.732;2023-03-15T06:43:07;93228.81;;;8.78;53.30
11329;BME280;5719;42.714;23.732;2023-03-15T06:45:33;93232.75;;;9.32;50.66
11329;BME280;5719;42.714;23.732;2023-03-15T06:48:02;93221.78;;;9.78;49.07
11329;BME280;5719;42.714;23.732;2023-03-15T06:50:29;93225.19;;;10.17;47.16
11329;BME280;5719;42.714;23.732;2023-03-15T06:52:55;93218.94;;;10.66;45.80
11329;BME280;5719;42.714;23.732;2023-03-15T06:55:24;93209.31;;;10.95;43.84
11329;BME280;5719;42.714;23.732;2023-03-15T06:57:51;93206.38;;;11.70;42.57
11329;BME280;5719;42.714;23.732;2023-03-15T07:00:18;93196.09;;;12.14;41.95
11329;BME280;5719;42.714;23.732;2023-03-15T07:02:45;93197.63;;;12.76;40.07
11329;BME280;5719;42.714;23.732;2023-03-15T07:05:13;93199.28;;;12.85;38.39
11329;BME280;5719;42.714;23.732;2023-03-15T07:07:40;93200.66;;;13.39;38.19
11329;BME280;5719;42.714;23.732;2023-03-15T07:10:08;93178.81;;;13.66;36.89
11329;BME280;5719;42.714;23.732;2023-03-15T07:12:35;93178.91;;;13.32;37.26
11329;BME280;5719;42.714;23.732;2023-03-15T07:15:02;93194.00;;;13.45;37.43
11329;BME280;5719;42.714;23.732;2023-03-15T07:17:30;93198.75;;;13.57;37.14
11329;BME280;5719;42.714;23.732;2023-03-15T07:19:56;93197.97;;;13.73;37.13
11329;BME280;5719;42.714;23.732;2023-03-15T07:22:25;93197.81;;;13.83;37.00
11329;BME280;5719;42.714;23.732;2023-03-15T07:24:52;93206.44;;;13.91;36.10
11329;BME280;5719;42.714;23.732;2023-03-15T07:27:19;93208.06;;;14.08;36.12
11329;BME280;5719;42.714;23.732;2023-03-15T07:29:46;93204.50;;;14.25;36.18
11329;BME280;5719;42.714;23.732;2023-03-15T07:32:13;93205.16;;;14.52;35.52
11329;BME280;5719;42.714;23.732;2023-03-15T07:34:40;93206.59;;;14.14;35.85
11329;BME280;5719;42.714;23.732;2023-03-15T07:37:07;93197.03;;;13.98;35.78
11329;BME280;5719;42.714;23.732;2023-03-15T07:39:35;93206.28;;;14.33;35.37
11329;BME280;5719;42.714;23.732;2023-03-15T07:42:02;93195.03;;;14.81;34.90
11329;BME280;5719;42.714;23.732;2023-03-15T07:44:31;93193.69;;;15.32;35.06
11329;BME280;5719;42.714;23.732;2023-03-15T07:46:58;93194.69;;;15.70;34.62
11329;BME280;5719;42.714;23.732;2023-03-15T07:49:25;93176.63;;;15.91;33.90
11329;BME280;5719;42.714;23.732;2023-03-15T07:51:52;93176.72;;;15.98;32.65
11329;BME280;5719;42.714;23.732;2023-03-15T07:54:19;93170.16;;;15.48;33.66
11329;BME280;5719;42.714;23.732;2023-03-15T07:56:47;93170.47;;;15.61;34.03
11329;BME280;5719;42.714;23.732;2023-03-15T07:59:14;93164.50;;;15.76;33.66
11329;BME280;5719;42.714;23.732;2023-03-15T08:01:41;93178.75;;;15.88;33.47
11329;BME280;5719;42.714;23.732;2023-03-15T08:04:09;93165.25;;;16.07;32.57
11329;BME280;5719;42.714;23.732;2023-03-15T08:06:36;93166.25;;;15.83;32.88
11329;BME280;5719;42.714;23.732;2023-03-15T08:09:03;93154.59;;;15.94;32.44
11329;BME280;5719;42.714;23.732;2023-03-15T08:11:31;93147.00;;;16.07;32.91
11329;BME280;5719;42.714;23.732;2023-03-15T08:13:59;93151.00;;;16.32;32.50
11329;BME280;5719;42.714;23.732;2023-03-15T08:16:26;93146.56;;;16.55;32.16
11329;BME280;5719;42.714;23.732;2023-03-15T08:18:53;93143.81;;;16.86;31.99
11329;BME280;5719;42.714;23.732;2023-03-15T08:21:20;93141.66;;;17.04;31.74
11329;BME280;5719;42.714;23.732;2023-03-15T08:23:47;93140.53;;;17.28;31.15
11329;BME280;5719;42.714;23.732;2023-03-15T08:26:14;93138.44;;;17.38;30.71
11329;BME280;5719;42.714;23.732;2023-03-15T08:28:40;93131.28;;;17.61;30.62
11329;BME280;5719;42.714;23.732;2023-03-15T08:31:09;93117.91;;;17.35;30.55
11329;BME280;5719;42.714;23.732;2023-03-15T08:33:38;93118.75;;;17.21;31.44
11329;BME280;5719;42.714;23.732;2023-03-15T08:36:05;93109.16;;;17.43;30.77
11329;BME280;5719;42.714;23.732;2023-03-15T08:38:32;93116.38;;;17.77;30.99
11329;BME280;5719;42.714;23.732;2023-03-15T08:40:59;93127.56;;;18.41;30.06
11329;BME280;5719;42.714;23.732;2023-03-15T08:43:26;93124.75;;;18.64;30.43
11329;BME280;5719;42.714;23.732;2023-03-15T08:45:53;93117.25;;;18.88;28.97
11329;BME280;5719;42.714;23.732;2023-03-15T08:48:21;93118.88;;;18.89;28.89
11329;BME280;5719;42.714;23.732;2023-03-15T08:50:48;93129.53;;;19.29;28.77
11329;BME280;5719;42.714;23.732;2023-03-15T08:53:15;93140.38;;;19.60;28.56
11329;BME280;5719;42.714;23.732;2023-03-15T08:55:42;93136.44;;;19.36;28.69
11329;BME280;5719;42.714;23.732;2023-03-15T08:58:09;93150.09;;;19.25;28.78
11329;BME280;5719;42.714;23.732;2023-03-15T09:00:37;93149.69;;;19.28;28.32
11329;BME280;5719;42.714;23.732;2023-03-15T09:03:04;93143.66;;;18.87;29.15
11329;BME280;5719;42.714;23.732;2023-03-15T09:05:32;93150.72;;;18.93;29.35
11329;BME280;5719;42.714;23.732;2023-03-15T09:07:59;93147.50;;;17.93;30.50
11329;BME280;5719;42.714;23.732;2023-03-15T09:10:26;93135.44;;;17.05;31.49
11329;BME280;5719;42.714;23.732;2023-03-15T09:12:53;93132.84;;;16.24;32.17
11329;BME280;5719;42.714;23.732;2023-03-15T09:15:20;93131.09;;;16.98;31.92
11329;BME280;5719;42.714;23.732;2023-03-15T09:17:49;93132.31;;;17.31;31.06
11329;BME280;5719;42.714;23.732;2023-03-15T09:20:17;93129.88;;;17.44;31.23
11329;BME280;5719;42.714;23.732;2023-03-15T09:22:51;93130.22;;;16.61;31.98
11329;BME280;5719;42.714;23.732;2023-03-15T09:25:19;93132.81;;;17.05;31.38
11329;BME280;5719;42.714;23.732;2023-03-15T09:27:46;93140.31;;;16.94;32.17
11329;BME280;5719;42.714;23.732;2023-03-15T09:30:14;93138.31;;;17.10;31.94
11329;BME280;5719;42.714;23.732;2023-03-15T09:32:41;93131.75;;;16.71;32.56
11329;BME280;5719;42.714;23.732;2023-03-15T09:35:12;93124.59;;;15.98;32.96
11329;BME280;5719;42.714;23.732;2023-03-15T09:37:39;93128.88;;;15.91;33.66
11329;BME280;5719;42.714;23.732;2023-03-15T09:40:14;93131.53;;;16.05;33.27
11329;BME280;5719;42.714;23.732;2023-03-15T09:42:54;93132.53;;;16.04;33.55
11329;BME280;5719;42.714;23.732;2023-03-15T09:45:27;93121.28;;;16.04;33.19
11329;BME280;5719;42.714;23.732;2023-03-15T09:48:02;93131.63;;;15.13;35.11
11329;BME280;5719;42.714;23.732;2023-03-15T09:50:33;93127.59;;;14.71;35.64
11329;BME280;5719;42.714;23.732;2023-03-15T09:53:03;93128.22;;;14.65;35.57
11329;BME280;5719;42.714;23.732;2023-03-15T09:55:35;93125.53;;;14.43;36.10
11329;BME280;5719;42.714;23.732;2023-03-15T09:58:03;93123.38;;;14.62;36.40
11329;BME280;5719;42.714;23.732;2023-03-15T10:00:36;93130.44;;;14.93;36.08
11329;BME280;5719;42.714;23.732;2023-03-15T10:03:04;93132.66;;;15.04;35.30
11329;BME280;5719;42.714;23.732;2023-03-15T10:05:39;93134.97;;;14.11;36.45
11329;BME280;5719;42.714;23.732;2023-03-15T10:08:11;93131.88;;;14.40;37.41
11329;BME280;5719;42.714;23.732;2023-03-15T10:10:46;93129.59;;;15.00;35.94
11329;BME280;5719;42.714;23.732;2023-03-15T10:13:27;93136.25;;;14.48;35.98
11329;BME280;5719;42.714;23.732;2023-03-15T10:16:01;93131.81;;;14.64;35.38
11329;BME280;5719;42.714;23.732;2023-03-15T10:18:43;93124.94;;;15.18;35.35
11329;BME280;5719;42.714;23.732;2023-03-15T10:21:29;93126.44;;;15.66;35.16
11329;BME280;5719;42.714;23.732;2023-03-15T10:23:57;93118.19;;;16.23;34.69
11329;BME280;5719;42.714;23.732;2023-03-15T10:26:31;93121.50;;;16.17;33.87
11329;BME280;5719;42.714;23.732;2023-03-15T10:29:02;93108.47;;;16.17;33.71
11329;BME280;5719;42.714;23.732;2023-03-15T10:31:33;93099.34;;;16.80;33.36
11329;BME280;5719;42.714;23.732;2023-03-15T10:34:03;93091.31;;;16.96;33.30
11329;BME280;5719;42.714;23.732;2023-03-15T10:36:30;93093.63;;;17.20;32.48
11329;BME280;5719;42.714;23.732;2023-03-15T10:38:57;93084.72;;;17.14;32.68
11329;BME280;5719;42.714;23.732;2023-03-15T10:41:36;93080.53;;;17.56;32.49
11329;BME280;5719;42.714;23.732;2023-03-15T10:44:05;93079.28;;;17.67;32.07
11329;BME280;5719;42.714;23.732;2023-03-15T10:46:33;93075.44;;;17.48;31.81
11329;BME280;5719;42.714;23.732;2023-03-15T10:49:08;93066.66;;;17.34;32.27
11329;BME280;5719;42.714;23.732;2023-03-15T10:51:39;93072.44;;;17.66;32.66
11329;BME280;5719;42.714;23.732;2023-03-15T10:54:11;93071.38;;;16.74;32.92
11329;BME280;5719;42.714;23.732;2023-03-15T10:56:46;93069.47;;;16.53;33.47
11329;BME280;5719;42.714;23.732;2023-03-15T10:59:17;93075.06;;;16.94;32.74
11329;BME280;5719;42.714;23.732;2023-03-15T11:01:46;93071.63;;;16.93;32.47
11329;BME280;5719;42.714;23.732;2023-03-15T11:04:16;93066.50;;;17.21;32.74
11329;BME280;5719;42.714;23.732;2023-03-15T11:06:45;93058.28;;;17.03;33.03
11329;BME280;5719;42.714;23.732;2023-03-15T11:09:14;93064.34;;;15.55;34.00
11329;BME280;5719;42.714;23.732;2023-03-15T11:11:54;93080.78;;;14.63;36.00
11329;BME280;5719;42.714;23.732;2023-03-15T11:14:22;93060.47;;;15.20;35.75
11329;BME280;5719;42.714;23.732;2023-03-15T11:16:52;93064.91;;;15.65;35.01
11329;BME280;5719;42.714;23.732;2023-03-15T11:19:22;93060.97;;;16.07;34.46
11329;BME280;5719;42.714;23.732;2023-03-15T11:21:52;93066.75;;;15.57;33.99
11329;BME280;5719;42.714;23.732;2023-03-15T11:24:25;93069.84;;;15.60;34.62
11329;BME280;5719;42.714;23.732;2023-03-15T11:26:54;93071.41;;;15.69;34.23
11329;BME280;5719;42.714;23.732;2023-03-15T11:29:26;93073.59;;;15.81;34.19
11329;BME280;5719;42.714;23.732;2023-03-15T11:31:54;93067.88;;;15.62;34.84
11329;BME280;5719;42.714;23.732;2023-03-15T11:34:27;93074.81;;;14.47;36.19
11329;BME280;5719;42.714;23.732;2023-03-15T11:36:59;93068.91;;;13.98;37.37
11329;BME280;5719;42.714;23.732;2023-03-15T11:39:34;93068.91;;;13.73;38.70
11329;BME280;5719;42.714;23.732;2023-03-15T11:42:09;93067.59;;;13.37;38.91
11329;BME280;5719;42.714;23.732;2023-03-15T11:44:40;93057.66;;;13.00;40.17
11329;BME280;5719;42.714;23.732;2023-03-15T11:47:14;93070.22;;;12.71;39.86
11329;BME280;5719;42.714;23.732;2023-03-15T11:49:47;93067.34;;;12.82;39.50
11329;BME280;5719;42.714;23.732;2023-03-15T11:52:15;93059.34;;;12.67;40.16
11329;BME280;5719;42.714;23.732;2023-03-15T11:54:43;93059.97;;;12.19;40.43
11329;BME280;5719;42.714;23.732;2023-03-15T11:57:37;93064.78;;;12.48;41.13
11329;BME280;5719;42.714;23.732;2023-03-15T12:03:38;93057.09;;;12.72;41.01
11329;BME280;5719;42.714;23.732;2023-03-15T12:08:54;93063.88;;;12.23;41.84
11329;BME280;5719;42.714;23.732;2023-03-15T12:11:40;93065.84;;;12.29;42.05
11329;BME280;5719;42.714;23.732;2023-03-15T12:14:26;93055.38;;;12.13;41.69
11329;BME280;5719;42.714;23.732;2023-03-15T12:17:36;93052.91;;;12.04;42.39
11329;BME280;5719;42.714;23.732;2023-03-15T12:20:07;93042.78;;;12.52;41.38
11329;BME280;5719;42.714;23.732;2023-03-15T12:22:41;93041.44;;;13.06;40.74
11329;BME280;5719;42.714;23.732;2023-03-15T12:25:12;93051.41;;;13.51;39.82
11329;BME280;5719;42.714;23.732;2023-03-15T12:27:44;93042.63;;;13.60;39.49
11329;BME280;5719;42.714;23.732;2023-03-15T12:30:19;93045.88;;;13.54;39.00
11329;BME280;5719;42.714;23.732;2023-03-15T12:32:49;93037.75;;;13.17;39.50
11329;BME280;5719;42.714;23.732;2023-03-15T12:35:19;93044.91;;;13.39;39.41
11329;BME280;5719;42.714;23.732;2023-03-15T12:37:48;93044.41;;;13.27;39.72
11329;BME280;5719;42.714;23.732;2023-03-15T12:40:48;93050.91;;;13.72;39.12
11329;BME280;5719;42.714;23.732;2023-03-15T12:43:35;93041.63;;;13.94;38.41
11329;BME280;5719;42.714;23.732;2023-03-15T12:46:04;93040.31;;;13.98;38.10
11329;BME280;5719;42.714;23.732;2023-03-15T12:48:32;93052.94;;;14.17;38.34
11329;BME280;5719;42.714;23.732;2023-03-15T12:51:01;93040.88;;;14.40;37.85
11329;BME280;5719;42.714;23.732;2023-03-15T12:53:39;93039.59;;;14.36;37.83
11329;BME280;5719;42.714;23.732;2023-03-15T12:56:40;93035.91;;;14.61;37.70
11329;BME280;5719;42.714;23.732;2023-03-15T12:59:21;93022.56;;;14.95;37.04
11329;BME280;5719;42.714;23.732;2023-03-15T13:01:52;93026.78;;;14.65;38.01
11329;BME280;5719;42.714;23.732;2023-03-15T13:04:19;93020.50;;;14.60;37.08
11329;BME280;5719;42.714;23.732;2023-03-15T13:06:56;93017.03;;;14.67;37.55
11329;BME280;5719;42.714;23.732;2023-03-15T13:09:41;93027.06;;;15.01;37.11
11329;BME280;5719;42.714;23.732;2023-03-15T13:12:16;93023.00;;;15.07;36.46
11329;BME280;5719;42.714;23.732;2023-03-15T13:14:50;93025.34;;;14.63;37.55
11329;BME280;5719;42.714;23.732;2023-03-15T13:17:30;93023.31;;;14.81;37.80
11329;BME280;5719;42.714;23.732;2023-03-15T13:20:12;93029.31;;;14.82;37.38
11329;BME280;5719;42.714;23.732;2023-03-15T13:22:49;93029.13;;;15.14;37.33